createdAt,value
2023-04-23T11:41:43.951Z,19.47
2023-04-23T11:44:13.406Z,19.75
2023-04-23T11:46:41.685Z,19.85
2023-04-23T11:49:10.085Z,19.93
2023-04-23T11:51:45.929Z,19.50
2023-04-23T11:54:15.137Z,18.91
2023-04-23T11:56:44.300Z,18.34
2023-04-23T11:59:12.605Z,17.78
2023-04-23T12:01:42.806Z,17.24
2023-04-23T12:04:16.199Z,16.57
2023-04-23T12:06:45.840Z,15.77
2023-04-23T12:09:15.648Z,15.02
2023-04-23T12:11:44.725Z,14.41
2023-04-23T12:14:14.733Z,14.07
2023-04-23T12:16:45.975Z,13.89
2023-04-23T12:19:16.104Z,13.78
2023-04-23T12:21:57.750Z,13.71
2023-04-23T12:24:47.464Z,13.68
2023-04-23T12:27:16.859Z,13.72
2023-04-23T12:29:45.449Z,13.78
2023-04-23T12:32:14.896Z,13.87
2023-04-23T12:34:54.045Z,14.03
2023-04-23T12:37:29.556Z,14.21
2023-04-23T12:39:59.673Z,14.44
2023-04-23T12:42:28.338Z,14.68
2023-04-23T12:45:08.776Z,14.97
2023-04-23T12:47:37.701Z,15.25
2023-04-23T12:50:06.921Z,15.44
2023-04-23T12:52:35.909Z,15.58
2023-04-23T12:55:05.350Z,15.63
2023-04-23T12:57:33.872Z,15.61
2023-04-23T13:00:02.506Z,15.51
2023-04-23T13:02:32.626Z,15.37
2023-04-23T13:05:02.166Z,15.14
2023-04-23T13:07:31.203Z,14.85
2023-04-23T13:09:59.833Z,14.58
2023-04-23T13:12:28.550Z,14.29
2023-04-23T13:14:57.302Z,13.92
2023-04-23T13:17:26.803Z,13.55
2023-04-23T13:19:56.102Z,13.22
2023-04-23T13:22:28.748Z,12.98
2023-04-23T13:24:57.749Z,12.79
2023-04-23T13:27:27.036Z,12.63
2023-04-23T13:29:55.819Z,12.52
2023-04-23T13:32:27.449Z,12.47
2023-04-23T13:34:56.662Z,12.46
2023-04-23T13:37:26.673Z,12.49
2023-04-23T13:39:55.026Z,12.49
2023-04-23T13:42:23.424Z,12.54
2023-04-23T13:44:51.835Z,12.59
2023-04-23T13:47:20.506Z,12.66
2023-04-23T13:49:49.391Z,12.74
2023-04-23T13:52:17.868Z,12.84
2023-04-23T13:54:47.984Z,12.92
2023-04-23T13:57:16.459Z,13.01
2023-04-23T13:59:45.015Z,13.13
2023-04-23T14:02:14.344Z,13.23
2023-04-23T14:04:43.090Z,13.27
2023-04-23T14:07:11.614Z,13.30
2023-04-23T14:09:40.599Z,13.34
2023-04-23T14:12:09.631Z,13.43
2023-04-23T14:14:38.513Z,13.58
2023-04-23T14:17:06.781Z,13.76
2023-04-23T14:19:37.944Z,13.93
2023-04-23T14:22:07.353Z,14.14
2023-04-23T14:24:40.000Z,14.31
2023-04-23T14:27:08.252Z,14.47
2023-04-23T14:29:41.438Z,14.60
2023-04-23T14:32:10.042Z,14.73
2023-04-23T14:34:39.695Z,14.85
2023-04-23T14:37:06.800Z,14.90
2023-04-23T14:39:34.793Z,14.91
2023-04-23T14:42:02.952Z,14.89
2023-04-23T14:44:30.127Z,14.87
2023-04-23T14:46:57.364Z,14.86
2023-04-23T14:49:24.524Z,14.86
2023-04-23T14:51:54.596Z,14.86
2023-04-23T14:54:22.572Z,14.86
2023-04-23T14:56:50.866Z,14.86
2023-04-23T14:59:18.022Z,14.85
2023-04-23T15:01:45.147Z,14.86
2023-04-23T15:04:12.616Z,14.90
2023-04-23T15:06:40.736Z,14.89
2023-04-23T15:09:07.861Z,14.87
2023-04-23T15:11:35.107Z,14.84
2023-04-23T15:14:09.631Z,14.84
2023-04-23T15:16:47.552Z,14.84
2023-04-23T15:19:18.235Z,14.81
2023-04-23T15:21:46.233Z,14.74
2023-04-23T15:24:13.395Z,14.68
2023-04-23T15:26:40.518Z,14.64
2023-04-23T15:29:10.697Z,14.60
2023-04-23T15:31:38.437Z,14.57
2023-04-23T15:34:09.481Z,14.54
2023-04-23T15:36:38.041Z,14.50
2023-04-23T15:39:06.585Z,14.37
2023-04-23T15:41:34.093Z,14.28
2023-04-23T15:44:01.948Z,14.20
2023-04-23T15:46:28.986Z,14.09
2023-04-23T15:48:56.553Z,13.96
2023-04-23T15:51:23.554Z,13.82
2023-04-23T15:53:51.660Z,13.68
2023-04-23T15:56:18.778Z,13.53
2023-04-23T15:58:45.871Z,13.36
2023-04-23T16:01:13.030Z,13.23
2023-04-23T16:03:40.372Z,13.12
2023-04-23T16:06:09.465Z,13.04
2023-04-23T16:08:37.735Z,12.97
2023-04-23T16:11:05.389Z,12.90
2023-04-23T16:13:32.516Z,12.85
2023-04-23T16:15:59.591Z,12.79
2023-04-23T16:18:26.735Z,12.70
2023-04-23T16:20:53.830Z,12.61
2023-04-23T16:23:21.274Z,12.55
2023-04-23T16:25:48.512Z,12.49
2023-04-23T16:28:15.655Z,12.41
2023-04-23T16:30:42.709Z,12.33
2023-04-23T16:33:10.523Z,12.27
2023-04-23T16:35:37.713Z,12.22
2023-04-23T16:38:04.880Z,12.17
2023-04-23T16:40:32.013Z,12.10
2023-04-23T16:42:59.390Z,12.04
2023-04-23T16:45:26.519Z,12.00
2023-04-23T16:47:53.601Z,11.97
2023-04-23T16:50:20.720Z,11.93
2023-04-23T16:52:47.937Z,11.92
2023-04-23T16:55:15.322Z,11.87
2023-04-23T16:57:42.619Z,11.83
2023-04-23T17:00:10.676Z,11.82
2023-04-23T17:02:38.732Z,11.79
2023-04-23T17:05:06.452Z,11.76
2023-04-23T17:07:33.462Z,11.70
2023-04-23T17:10:00.568Z,11.64
2023-04-23T17:12:27.831Z,11.58
2023-04-23T17:14:55.081Z,11.52
2023-04-23T17:17:23.313Z,11.50
2023-04-23T17:19:51.220Z,11.47
2023-04-23T17:22:18.291Z,11.43
2023-04-23T17:24:45.530Z,11.39
2023-04-23T17:27:12.674Z,11.35
2023-04-23T17:29:39.756Z,11.29
2023-04-23T17:32:06.924Z,11.24
2023-04-23T17:34:34.579Z,11.18
2023-04-23T17:37:01.616Z,11.09
2023-04-23T17:39:29.251Z,11.01
2023-04-23T17:41:57.677Z,10.93
2023-04-23T17:44:24.775Z,10.86
2023-04-23T17:46:55.405Z,10.80
2023-04-23T17:49:22.965Z,10.77
2023-04-23T17:51:50.070Z,10.76
2023-04-23T17:54:17.921Z,10.80
2023-04-23T17:56:45.137Z,10.85
2023-04-23T17:59:12.282Z,10.92
2023-04-23T18:01:39.598Z,10.99
2023-04-23T18:04:07.157Z,11.07
2023-04-23T18:06:35.792Z,11.14
2023-04-23T18:09:03.681Z,11.20
2023-04-23T18:11:31.126Z,11.26
2023-04-23T18:13:58.328Z,11.31
2023-04-23T18:16:25.516Z,11.33
2023-04-23T18:18:52.653Z,11.32
2023-04-23T18:21:19.738Z,11.25
2023-04-23T18:23:46.809Z,11.15
2023-04-23T18:26:13.909Z,11.01
2023-04-23T18:28:40.962Z,10.87
2023-04-23T18:31:08.181Z,10.71
2023-04-23T18:33:43.397Z,10.56
2023-04-23T18:36:26.197Z,10.41
2023-04-23T18:38:53.236Z,10.31
2023-04-23T18:41:20.841Z,10.24
2023-04-23T18:43:47.916Z,10.16
2023-04-23T18:46:15.306Z,10.05
2023-04-23T18:48:52.609Z,9.93
2023-04-23T18:51:31.312Z,9.81
2023-04-23T18:53:58.404Z,9.71
2023-04-23T18:56:25.777Z,9.63
2023-04-23T18:58:52.830Z,9.56
2023-04-23T19:01:21.014Z,9.48
2023-04-23T19:03:48.199Z,9.40
2023-04-23T19:06:16.013Z,9.37
2023-04-23T19:08:43.084Z,9.35
2023-04-23T19:11:10.068Z,9.33
2023-04-23T19:13:37.123Z,9.32
2023-04-23T19:16:04.200Z,9.34
2023-04-23T19:18:31.222Z,9.37
2023-04-23T19:20:58.989Z,9.38
2023-04-23T19:23:26.074Z,9.41
2023-04-23T19:25:53.161Z,9.44
2023-04-23T19:28:20.157Z,9.50
2023-04-23T19:30:47.337Z,9.57
2023-04-23T19:33:14.360Z,9.63
2023-04-23T19:35:41.725Z,9.66
2023-04-23T19:38:09.081Z,9.70
2023-04-23T19:40:36.051Z,9.75
2023-04-23T19:43:03.201Z,9.80
2023-04-23T19:45:30.254Z,9.84
2023-04-23T19:47:57.478Z,9.87
2023-04-23T19:50:25.060Z,9.87
2023-04-23T19:52:53.540Z,9.82
2023-04-23T19:55:22.573Z,9.78
2023-04-23T19:57:49.545Z,9.73
2023-04-23T20:00:16.815Z,9.61
2023-04-23T20:02:44.069Z,9.63
2023-04-23T20:05:11.430Z,9.67
2023-04-23T20:07:39.002Z,9.62
2023-04-23T20:10:06.602Z,9.54
2023-04-23T20:12:34.037Z,9.42
2023-04-23T20:15:01.204Z,9.32
2023-04-23T20:17:30.033Z,9.24
2023-04-23T20:20:01.959Z,9.14
2023-04-23T20:22:29.729Z,9.05
2023-04-23T20:24:57.222Z,9.00
2023-04-23T20:27:24.354Z,8.93
2023-04-23T20:29:51.590Z,8.89
2023-04-23T20:32:18.566Z,8.85
2023-04-23T20:34:45.698Z,8.79
2023-04-23T20:37:13.798Z,8.73
2023-04-23T20:39:42.044Z,8.66
2023-04-23T20:42:09.349Z,8.60
2023-04-23T20:44:36.441Z,8.56
2023-04-23T20:47:04.940Z,8.52
2023-04-23T20:49:32.439Z,8.47
2023-04-23T20:51:59.987Z,8.42
2023-04-23T20:54:27.008Z,8.36
2023-04-23T20:56:54.246Z,8.32
2023-04-23T20:59:21.952Z,8.28
2023-04-23T21:04:39.981Z,8.24
2023-04-23T21:07:07.295Z,8.15
2023-04-23T21:09:34.443Z,8.10
2023-04-23T21:12:02.550Z,8.04
2023-04-23T21:14:29.669Z,7.95
2023-04-23T21:16:57.232Z,7.88
2023-04-23T21:19:24.377Z,7.83
2023-04-23T21:21:51.731Z,7.77
2023-04-23T21:24:18.797Z,7.74
2023-04-23T21:26:46.766Z,7.73
2023-04-23T21:29:13.891Z,7.73
2023-04-23T21:31:48.316Z,7.74
2023-04-23T21:34:15.674Z,7.71
2023-04-23T21:36:44.936Z,7.72
2023-04-23T21:39:13.327Z,7.74
2023-04-23T21:41:40.539Z,7.76
2023-04-23T21:44:08.496Z,7.80
2023-04-23T21:46:35.805Z,7.82
2023-04-23T21:49:02.965Z,7.80
2023-04-23T21:51:30.549Z,7.78
2023-04-23T21:53:57.677Z,7.74
2023-04-23T21:56:24.732Z,7.70
2023-04-23T21:58:51.887Z,7.68
2023-04-23T22:01:19.184Z,7.67
2023-04-23T22:03:46.835Z,7.65
2023-04-23T22:06:15.845Z,7.62
2023-04-23T22:08:45.028Z,7.58
2023-04-23T22:11:12.744Z,7.54
2023-04-23T22:13:39.812Z,7.51
2023-04-23T22:16:16.366Z,7.50
2023-04-23T22:18:51.883Z,7.50
2023-04-23T22:21:18.960Z,7.49
2023-04-23T22:23:46.517Z,7.47
2023-04-23T22:26:13.635Z,7.45
2023-04-23T22:28:40.820Z,7.46
2023-04-23T22:31:08.175Z,7.45
2023-04-23T22:33:36.686Z,7.44
2023-04-23T22:36:05.478Z,7.42
2023-04-23T22:38:32.914Z,7.40
2023-04-23T22:40:59.976Z,7.39
2023-04-23T22:43:27.209Z,7.37
2023-04-23T22:45:54.271Z,7.35
2023-04-23T22:48:21.760Z,7.34
2023-04-23T22:50:51.196Z,7.34
2023-04-23T22:53:19.828Z,7.33
2023-04-23T22:55:47.251Z,7.33
2023-04-23T22:58:14.404Z,7.33
2023-04-23T23:00:42.274Z,7.36
2023-04-23T23:03:09.624Z,7.40
2023-04-23T23:05:36.931Z,7.43
2023-04-23T23:08:04.027Z,7.43
2023-04-23T23:10:31.850Z,7.40
2023-04-23T23:12:58.914Z,7.35
2023-04-23T23:15:25.984Z,7.32
2023-04-23T23:17:54.071Z,7.30
2023-04-23T23:20:21.634Z,7.26
2023-04-23T23:22:48.764Z,7.23
2023-04-23T23:25:16.292Z,7.18
2023-04-23T23:27:43.475Z,7.14
2023-04-23T23:30:10.993Z,7.09
2023-04-23T23:32:38.134Z,7.03
2023-04-23T23:35:06.683Z,6.98
2023-04-23T23:37:33.822Z,6.93
2023-04-23T23:40:00.822Z,6.88
2023-04-23T23:42:28.110Z,6.83
2023-04-23T23:44:55.230Z,6.79
2023-04-23T23:47:22.419Z,6.75
2023-04-23T23:49:49.672Z,6.72
2023-04-23T23:52:16.763Z,6.69
2023-04-23T23:54:43.874Z,6.67
2023-04-23T23:57:11.213Z,6.65
2023-04-23T23:59:38.370Z,6.65
